Time;durP1;ratioP1;P1;durP2;ratioP2;P2;SDS_P1;SDS_P2;PMS_P1;PMS_P2;Temp;Humidity;BMP_temperature;BMP_pressure;BME280_temperature;BME280_humidity;BME280_pressure;Samples;Min_cycle;Max_cycle;Signal;HPM_P1;HPM_P2
2022/03/24 00:00:36;;;;;;;35.78;22.88;;;;;;;;;;4936914;29;20551;-75
2022/03/24 00:03:02;;;;;;;40.97;22.80;;;;;;;;;;4922711;29;20190;-77
2022/03/24 00:05:28;;;;;;;40.13;23.30;;;;;;;;;;4922743;29;20221;-77
2022/03/24 00:07:55;;;;;;;48.42;22.50;;;;;;;;;;4922427;29;20179;-75
2022/03/24 00:10:21;;;;;;;33.90;21.23;;;;;;;;;;4922154;29;20180;-76
2022/03/24 00:12:47;;;;;;;34.37;22.13;;;;;;;;;;4922780;29;20695;-77
2022/03/24 00:15:13;;;;;;;47.28;24.15;;;;;;;;;;4922660;29;20450;-76
2022/03/24 00:17:39;;;;;;;34.20;22.93;;;;;;;;;;4922763;29;20186;-77
2022/03/24 00:20:05;;;;;;;37.43;23.47;;;;;;;;;;4922748;29;20437;-78
2022/03/24 00:22:31;;;;;;;34.80;20.60;;;;;;;;;;4922167;29;20450;-77
2022/03/24 00:24:57;;;;;;;34.70;22.73;;;;;;;;;;4922305;29;20340;-76
2022/03/24 00:27:23;;;;;;;39.22;23.05;;;;;;;;;;4922561;29;20414;-75
2022/03/24 00:29:50;;;;;;;38.58;23.50;;;;;;;;;;4919215;29;20285;-76
2022/03/24 00:32:16;;;;;;;35.22;21.88;;;;;;;;;;4919231;29;20238;-76
2022/03/24 00:34:42;;;;;;;38.80;23.73;;;;;;;;;;4919651;29;20269;-74
2022/03/24 00:37:09;;;;;;;44.17;23.25;;;;;;;;;;4919512;29;20189;-75
2022/03/24 00:39:35;;;;;;;42.58;23.52;;;;;;;;;;4919697;29;20269;-76
2022/03/24 00:42:02;;;;;;;38.13;24.80;;;;;;;;;;4919148;29;20715;-77
2022/03/24 00:44:28;;;;;;;41.55;23.58;;;;;;;;;;4919636;29;20445;-75
2022/03/24 00:46:55;;;;;;;36.65;22.83;;;;;;;;;;4919564;29;20664;-78
2022/03/24 00:49:21;;;;;;;43.13;23.80;;;;;;;;;;4919471;29;20558;-75
2022/03/24 00:51:48;;;;;;;33.40;22.38;;;;;;;;;;4918975;29;20211;-77
2022/03/24 00:54:14;;;;;;;39.85;22.23;;;;;;;;;;4919121;29;20177;-76
2022/03/24 00:56:40;;;;;;;35.38;22.77;;;;;;;;;;4919200;29;20269;-78
2022/03/24 00:59:06;;;;;;;42.53;21.90;;;;;;;;;;4933585;29;20764;-78
2022/03/24 01:01:32;;;;;;;33.83;22.30;;;;;;;;;;4918690;29;20450;-76
2022/03/24 01:03:59;;;;;;;36.77;22.20;;;;;;;;;;4918992;29;20448;-77
2022/03/24 01:06:26;;;;;;;38.95;22.73;;;;;;;;;;4918880;29;20470;-79
2022/03/24 01:08:52;;;;;;;38.45;23.20;;;;;;;;;;4933765;29;20645;-77
2022/03/24 01:11:18;;;;;;;32.88;21.73;;;;;;;;;;4918542;29;20691;-76
2022/03/24 01:13:44;;;;;;;38.80;22.43;;;;;;;;;;4918954;29;20193;-74
2022/03/24 01:16:10;;;;;;;32.40;22.30;;;;;;;;;;4918834;29;20804;-75
2022/03/24 01:18:37;;;;;;;36.60;22.65;;;;;;;;;;4918931;29;20773;-75
2022/03/24 01:21:03;;;;;;;34.80;22.35;;;;;;;;;;4918442;29;20258;-76
2022/03/24 01:23:30;;;;;;;35.63;22.58;;;;;;;;;;4918574;29;20288;-75
2022/03/24 01:25:57;;;;;;;34.00;22.63;;;;;;;;;;4918898;29;20729;-77
2022/03/24 01:28:23;;;;;;;40.25;22.52;;;;;;;;;;4918801;29;20225;-77
2022/03/24 01:30:49;;;;;;;38.50;21.08;;;;;;;;;;4918456;29;20533;-76
2022/03/24 01:33:15;;;;;;;42.73;23.43;;;;;;;;;;4918671;29;20179;-76
2022/03/24 01:35:41;;;;;;;40.70;23.80;;;;;;;;;;4918512;29;20767;-77
2022/03/24 01:38:07;;;;;;;48.60;25.17;;;;;;;;;;4918515;29;20421;-76
2022/03/24 01:40:33;;;;;;;44.30;24.07;;;;;;;;;;4916943;29;20190;-77
2022/03/24 01:43:00;;;;;;;38.63;23.92;;;;;;;;;;4918333;29;20424;-75
2022/03/24 01:45:26;;;;;;;43.03;23.10;;;;;;;;;;4918229;29;20206;-77
2022/03/24 01:47:52;;;;;;;39.30;24.33;;;;;;;;;;4918210;29;20543;-75
2022/03/24 01:50:19;;;;;;;35.53;22.47;;;;;;;;;;4918111;29;20193;-76
2022/03/24 01:52:45;;;;;;;41.75;23.50;;;;;;;;;;4918445;29;20438;-78
2022/03/24 01:55:13;;;;;;;38.65;24.23;;;;;;;;;;4932647;29;20185;-77
2022/03/24 01:57:39;;;;;;;40.33;25.17;;;;;;;;;;4932668;29;20179;-77
2022/03/24 02:00:06;;;;;;;33.33;22.08;;;;;;;;;;4932442;29;20666;-77
2022/03/24 02:02:32;;;;;;;38.17;22.48;;;;;;;;;;4917565;29;20228;-75
2022/03/24 02:04:58;;;;;;;38.85;24.45;;;;;;;;;;4917813;29;20202;-78
2022/03/24 02:07:24;;;;;;;33.17;22.30;;;;;;;;;;4918045;29;20531;-74
2022/03/24 02:09:50;;;;;;;40.53;23.17;;;;;;;;;;4932548;29;20428;-77
2022/03/24 02:12:16;;;;;;;36.58;21.55;;;;;;;;;;4917379;29;20448;-75
2022/03/24 02:14:43;;;;;;;34.95;22.58;;;;;;;;;;4917747;29;20670;-76
2022/03/24 02:17:09;;;;;;;48.33;23.23;;;;;;;;;;4917960;29;20192;-76
2022/03/24 02:19:36;;;;;;;38.20;23.38;;;;;;;;;;4917928;29;20265;-75
2022/03/24 02:22:20;;;;;;;38.45;24.25;;;;;;;;;;4917382;29;20207;-74
2022/03/24 02:24:46;;;;;;;39.90;22.52;;;;;;;;;;4917226;29;20192;-76
2022/03/24 02:27:12;;;;;;;40.20;24.38;;;;;;;;;;4917690;29;20291;-75
2022/03/24 02:29:38;;;;;;;39.35;21.88;;;;;;;;;;4917649;29;20184;-75
2022/03/24 02:32:08;;;;;;;39.08;22.70;;;;;;;;;;4917194;29;20205;-76
2022/03/24 02:34:37;;;;;;;41.63;23.30;;;;;;;;;;4917437;29;20650;-76
2022/03/24 02:37:07;;;;;;;36.60;22.33;;;;;;;;;;4917314;29;20230;-75
2022/03/24 02:39:33;;;;;;;37.92;21.80;;;;;;;;;;4917328;29;20173;-74
2022/03/24 02:42:00;;;;;;;38.88;21.65;;;;;;;;;;4931599;29;20824;-76
2022/03/24 02:44:27;;;;;;;39.08;22.35;;;;;;;;;;4917387;29;20242;-76
2022/03/24 02:46:54;;;;;;;38.20;23.00;;;;;;;;;;4917163;29;20231;-75
2022/03/24 02:49:27;;;;;;;39.78;23.17;;;;;;;;;;4917304;29;20229;-74
2022/03/24 02:51:54;;;;;;;38.10;21.52;;;;;;;;;;4916587;29;20198;-75
2022/03/24 02:54:20;;;;;;;35.97;22.23;;;;;;;;;;4931689;29;20189;-76
2022/03/24 02:56:47;;;;;;;42.20;23.60;;;;;;;;;;4917095;29;20607;-78
2022/03/24 02:59:13;;;;;;;40.97;23.63;;;;;;;;;;4917031;29;20267;-74
2022/03/24 03:01:45;;;;;;;35.75;21.15;;;;;;;;;;4931253;29;20205;-76
2022/03/24 03:04:14;;;;;;;39.42;21.45;;;;;;;;;;4917036;29;20188;-77
2022/03/24 03:06:40;;;;;;;36.05;22.08;;;;;;;;;;4917129;29;20213;-75
2022/03/24 03:09:06;;;;;;;38.15;23.05;;;;;;;;;;4916777;29;20182;-76
2022/03/24 03:11:33;;;;;;;37.25;21.25;;;;;;;;;;4916835;29;20225;-76
2022/03/24 03:14:01;;;;;;;37.67;21.73;;;;;;;;;;4917206;29;20184;-78
2022/03/24 03:16:27;;;;;;;36.60;21.92;;;;;;;;;;4917015;29;20286;-76
2022/03/24 03:18:55;;;;;;;34.10;23.00;;;;;;;;;;4916991;29;20220;-76
2022/03/24 03:21:21;;;;;;;40.17;23.55;;;;;;;;;;4916486;29;20207;-75
2022/03/24 03:23:47;;;;;;;36.92;21.80;;;;;;;;;;4916725;29;20208;-76
2022/03/24 03:26:17;;;;;;;35.80;21.47;;;;;;;;;;4916869;29;20564;-76
2022/03/24 03:28:44;;;;;;;37.65;22.83;;;;;;;;;;4916992;29;20523;-76
2022/03/24 03:31:10;;;;;;;39.78;23.65;;;;;;;;;;4916384;29;20247;-74
2022/03/24 03:33:36;;;;;;;37.42;21.38;;;;;;;;;;4915800;29;20653;-75
2022/03/24 03:36:06;;;;;;;38.13;22.13;;;;;;;;;;4916873;29;20242;-76
2022/03/24 03:38:33;;;;;;;35.33;21.80;;;;;;;;;;4916973;29;20227;-75
2022/03/24 03:41:02;;;;;;;38.08;21.65;;;;;;;;;;4916379;29;20198;-74
2022/03/24 03:43:28;;;;;;;37.55;20.60;;;;;;;;;;4916527;29;20264;-75
2022/03/24 03:45:54;;;;;;;36.20;22.17;;;;;;;;;;4916519;29;20289;-74
2022/03/24 03:48:20;;;;;;;39.15;21.25;;;;;;;;;;4916661;29;20497;-77
2022/03/24 03:50:46;;;;;;;37.27;21.53;;;;;;;;;;4916340;29;20697;-77
2022/03/24 03:53:12;;;;;;;36.50;22.73;;;;;;;;;;4916499;29;20430;-77
2022/03/24 03:55:38;;;;;;;43.10;22.07;;;;;;;;;;4916542;29;20436;-77
2022/03/24 03:58:05;;;;;;;43.30;20.83;;;;;;;;;;4916633;29;20508;-77
2022/03/24 04:03:15;;;;;;;47.70;23.42;;;;;;;;;;4916725;29;20200;-78
2022/03/24 04:05:43;;;;;;;40.75;22.88;;;;;;;;;;4919496;29;20215;-77
2022/03/24 04:08:09;;;;;;;38.90;22.90;;;;;;;;;;4919996;29;20175;-78
2022/03/24 04:10:35;;;;;;;36.25;20.98;;;;;;;;;;4919793;29;20674;-77
2022/03/24 04:13:02;;;;;;;43.28;22.60;;;;;;;;;;4934565;29;20186;-77
2022/03/24 04:15:28;;;;;;;43.80;21.63;;;;;;;;;;4919936;29;20184;-78
2022/03/24 04:17:55;;;;;;;42.60;21.43;;;;;;;;;;4919875;29;20198;-79
2022/03/24 04:20:22;;;;;;;38.45;21.40;;;;;;;;;;4919473;29;20477;-78
2022/03/24 04:22:51;;;;;;;39.65;21.73;;;;;;;;;;4919994;29;20177;-77
2022/03/24 04:25:18;;;;;;;39.50;21.83;;;;;;;;;;4919776;29;20232;-76
2022/03/24 04:27:44;;;;;;;37.55;22.17;;;;;;;;;;4919784;29;20230;-76
2022/03/24 04:30:12;;;;;;;34.90;19.92;;;;;;;;;;4919563;29;20185;-77
2022/03/24 04:32:38;;;;;;;35.78;20.95;;;;;;;;;;4919692;29;20619;-76
2022/03/24 04:35:04;;;;;;;35.47;22.08;;;;;;;;;;4919710;29;20576;-76
2022/03/24 04:37:30;;;;;;;40.92;21.92;;;;;;;;;;4919619;29;20179;-77
2022/03/24 04:39:56;;;;;;;38.03;23.10;;;;;;;;;;4919627;29;20189;-76
2022/03/24 04:42:22;;;;;;;43.33;24.40;;;;;;;;;;4919151;29;20508;-77
2022/03/24 04:44:48;;;;;;;41.25;22.75;;;;;;;;;;4919308;29;20417;-75
2022/03/24 04:47:15;;;;;;;38.40;22.00;;;;;;;;;;4919375;29;20668;-76
2022/03/24 04:49:41;;;;;;;38.55;22.27;;;;;;;;;;4919199;29;20409;-76
2022/03/24 04:52:07;;;;;;;42.40;23.15;;;;;;;;;;4918956;29;20221;-77
2022/03/24 04:54:34;;;;;;;37.40;22.55;;;;;;;;;;4918151;29;20217;-75
2022/03/24 04:57:00;;;;;;;40.05;22.38;;;;;;;;;;4919517;29;20177;-75
2022/03/24 04:59:26;;;;;;;36.13;21.50;;;;;;;;;;4919672;29;20189;-76
2022/03/24 05:01:52;;;;;;;38.70;22.70;;;;;;;;;;4918667;29;20216;-76
2022/03/24 05:04:19;;;;;;;36.40;22.40;;;;;;;;;;4919046;29;20177;-75
2022/03/24 05:06:45;;;;;;;38.40;20.65;;;;;;;;;;4918976;29;20303;-76
2022/03/24 05:09:12;;;;;;;35.30;22.58;;;;;;;;;;4919003;29;20209;-79
2022/03/24 05:11:38;;;;;;;39.78;21.90;;;;;;;;;;4918497;29;20236;-75
2022/03/24 05:14:04;;;;;;;38.97;23.77;;;;;;;;;;4933613;29;20206;-78
2022/03/24 05:16:30;;;;;;;41.23;23.73;;;;;;;;;;4918839;29;20622;-76
2022/03/24 05:18:56;;;;;;;41.85;22.35;;;;;;;;;;4918845;29;20569;-74
2022/03/24 05:21:23;;;;;;;37.00;21.27;;;;;;;;;;4918541;29;20209;-76
2022/03/24 05:23:49;;;;;;;46.47;24.60;;;;;;;;;;4918612;29;20198;-76
2022/03/24 05:26:19;;;;;;;37.78;23.00;;;;;;;;;;4918528;29;20240;-75
2022/03/24 05:28:45;;;;;;;43.22;23.20;;;;;;;;;;4932732;29;20182;-74
2022/03/24 05:31:11;;;;;;;35.20;21.27;;;;;;;;;;4918141;29;20214;-75
2022/03/24 05:33:37;;;;;;;49.65;23.45;;;;;;;;;;4918601;29;20268;-74
2022/03/24 05:36:03;;;;;;;35.90;23.10;;;;;;;;;;4918369;29;20293;-75
2022/03/24 05:38:29;;;;;;;36.88;22.60;;;;;;;;;;4918418;29;20814;-74
2022/03/24 05:40:55;;;;;;;43.33;22.47;;;;;;;;;;4918346;29;20205;-74
2022/03/24 05:43:21;;;;;;;34.25;20.20;;;;;;;;;;4918377;29;20933;-76
2022/03/24 05:45:47;;;;;;;35.75;21.80;;;;;;;;;;4918371;29;20213;-75
2022/03/24 05:48:13;;;;;;;42.30;22.73;;;;;;;;;;4918351;29;20182;-75
2022/03/24 05:50:40;;;;;;;39.42;24.38;;;;;;;;;;4917850;29;20417;-77
2022/03/24 05:53:06;;;;;;;41.50;21.50;;;;;;;;;;4918138;29;20182;-77
2022/03/24 05:55:34;;;;;;;38.83;22.40;;;;;;;;;;4918090;29;20237;-74
2022/03/24 05:58:00;;;;;;;38.40;22.08;;;;;;;;;;4917994;29;20658;-75
2022/03/24 06:00:26;;;;;;;38.58;23.40;;;;;;;;;;4917503;29;20185;-78
2022/03/24 06:02:54;;;;;;;40.65;22.83;;;;;;;;;;4918065;29;20668;-75
2022/03/24 06:05:20;;;;;;;50.90;24.10;;;;;;;;;;4917902;29;20599;-76
2022/03/24 06:07:46;;;;;;;42.30;22.10;;;;;;;;;;4918014;29;20526;-77
2022/03/24 06:10:15;;;;;;;37.53;23.95;;;;;;;;;;4917535;29;20177;-76
2022/03/24 06:12:41;;;;;;;42.88;24.25;;;;;;;;;;4917403;29;20212;-76
2022/03/24 06:15:08;;;;;;;42.28;24.15;;;;;;;;;;4917764;29;20181;-76
2022/03/24 06:17:34;;;;;;;52.50;26.52;;;;;;;;;;4917920;29;20183;-77
2022/03/24 06:20:03;;;;;;;41.25;23.65;;;;;;;;;;4917665;29;20595;-77
2022/03/24 06:22:31;;;;;;;49.17;25.05;;;;;;;;;;4917227;29;20203;-79
2022/03/24 06:24:57;;;;;;;53.80;29.15;;;;;;;;;;4917390;29;20210;-77
2022/03/24 06:27:23;;;;;;;45.95;25.40;;;;;;;;;;4917240;29;20256;-78
2022/03/24 06:29:49;;;;;;;41.33;25.17;;;;;;;;;;4917536;29;20615;-75
2022/03/24 06:32:15;;;;;;;48.20;25.80;;;;;;;;;;4917369;29;20437;-77
2022/03/24 06:34:41;;;;;;;48.63;25.92;;;;;;;;;;4917389;29;20429;-76
2022/03/24 06:37:07;;;;;;;40.20;24.17;;;;;;;;;;4931762;29;20549;-75
2022/03/24 06:39:33;;;;;;;48.33;27.97;;;;;;;;;;4932002;29;20192;-78
2022/03/24 06:42:01;;;;;;;42.13;25.33;;;;;;;;;;4917081;29;20479;-79
2022/03/24 06:44:28;;;;;;;42.10;27.23;;;;;;;;;;4917296;29;20442;-79
2022/03/24 06:46:54;;;;;;;47.25;25.15;;;;;;;;;;4916773;29;20216;-77
2022/03/24 06:49:20;;;;;;;50.42;27.15;;;;;;;;;;4917285;29;20260;-77
2022/03/24 06:51:46;;;;;;;45.67;26.65;;;;;;;;;;4916893;29;20213;-78
2022/03/24 06:54:12;;;;;;;46.80;26.13;;;;;;;;;;4917344;29;20384;-77
2022/03/24 06:56:38;;;;;;;45.40;25.20;;;;;;;;;;4917260;29;20270;-77
2022/03/24 06:59:04;;;;;;;43.43;28.17;;;;;;;;;;4917126;29;20599;-78
2022/03/24 07:01:30;;;;;;;48.17;29.47;;;;;;;;;;4931449;29;20451;-79
2022/03/24 07:03:56;;;;;;;50.27;26.13;;;;;;;;;;4917138;29;20421;-79
2022/03/24 07:06:22;;;;;;;48.87;27.83;;;;;;;;;;4917020;29;20974;-78
2022/03/24 07:08:48;;;;;;;47.17;26.73;;;;;;;;;;4917808;29;20438;-79
2022/03/24 07:11:14;;;;;;;45.28;27.50;;;;;;;;;;4916500;29;20204;-77
2022/03/24 07:13:40;;;;;;;50.87;29.10;;;;;;;;;;4916946;29;20179;-77
2022/03/24 07:16:06;;;;;;;43.10;25.13;;;;;;;;;;4913069;29;20435;-75
2022/03/24 07:18:32;;;;;;;52.43;27.87;;;;;;;;;;4898719;29;20431;-78
2022/03/24 07:20:58;;;;;;;42.80;26.87;;;;;;;;;;4903294;29;20442;-78
2022/03/24 07:23:25;;;;;;;43.00;26.93;;;;;;;;;;4916909;29;20846;-79
2022/03/24 07:25:50;;;;;;;37.10;24.75;;;;;;;;;;4931420;29;20568;-76
2022/03/24 07:28:17;;;;;;;37.40;23.80;;;;;;;;;;4916816;29;20268;-76
2022/03/24 07:30:44;;;;;;;36.90;23.55;;;;;;;;;;4916474;29;20538;-78
2022/03/24 07:33:11;;;;;;;45.72;25.17;;;;;;;;;;4930824;29;20200;-79
2022/03/24 07:35:37;;;;;;;46.70;27.50;;;;;;;;;;4916689;29;20594;-78
2022/03/24 07:38:03;;;;;;;46.78;26.17;;;;;;;;;;4932083;29;20237;-75
2022/03/24 07:40:29;;;;;;;41.47;24.92;;;;;;;;;;4920176;29;20283;-79
2022/03/24 07:42:57;;;;;;;44.67;25.90;;;;;;;;;;4920548;29;20310;-77
2022/03/24 07:45:23;;;;;;;42.10;25.45;;;;;;;;;;4920455;29;20469;-78
2022/03/24 07:48:09;;;;;;;41.97;25.85;;;;;;;;;;4934987;29;20180;-77
2022/03/24 07:50:39;;;;;;;38.90;24.60;;;;;;;;;;4906097;29;20194;-77
2022/03/24 07:53:14;;;;;;;46.47;25.90;;;;;;;;;;4906445;29;20179;-77
2022/03/24 07:55:44;;;;;;;45.05;26.45;;;;;;;;;;4909128;29;20191;-78
2022/03/24 07:58:11;;;;;;;42.17;25.50;;;;;;;;;;4913639;29;20181;-78
2022/03/24 08:00:37;;;;;;;48.20;26.73;;;;;;;;;;4908633;29;20264;-76
2022/03/24 08:03:06;;;;;;;44.20;25.90;;;;;;;;;;4905801;29;20192;-76
2022/03/24 08:05:32;;;;;;;37.80;24.55;;;;;;;;;;4901411;29;20230;-76
2022/03/24 08:07:58;;;;;;;36.53;24.30;;;;;;;;;;4906342;29;20188;-76
2022/03/24 08:10:24;;;;;;;38.97;25.15;;;;;;;;;;4900864;29;20210;-78
2022/03/24 08:12:50;;;;;;;37.38;25.25;;;;;;;;;;4906520;29;20266;-75
2022/03/24 08:15:16;;;;;;;38.03;24.35;;;;;;;;;;4920085;29;20175;-79
2022/03/24 08:17:42;;;;;;;41.50;25.20;;;;;;;;;;4914053;29;20732;-79
2022/03/24 08:20:08;;;;;;;44.90;26.98;;;;;;;;;;4914389;29;20432;-76
2022/03/24 08:22:34;;;;;;;45.35;27.50;;;;;;;;;;4919880;29;20297;-78
2022/03/24 08:25:00;;;;;;;46.13;27.33;;;;;;;;;;4919769;29;20209;-77
2022/03/24 08:27:26;;;;;;;45.57;28.20;;;;;;;;;;4919689;29;20187;-80
2022/03/24 08:29:52;;;;;;;44.33;27.53;;;;;;;;;;4920309;29;20515;-80
2022/03/24 08:32:18;;;;;;;46.33;25.63;;;;;;;;;;4919414;29;20443;-78
2022/03/24 08:34:44;;;;;;;41.63;26.30;;;;;;;;;;4919867;29;20195;-76
2022/03/24 08:37:10;;;;;;;47.73;28.70;;;;;;;;;;4919594;29;20424;-78
2022/03/24 08:39:36;;;;;;;46.80;27.00;;;;;;;;;;4919692;29;20424;-77
2022/03/24 08:42:03;;;;;;;51.23;29.10;;;;;;;;;;4919358;29;21000;-79
2022/03/24 08:44:29;;;;;;;47.85;29.17;;;;;;;;;;4934139;29;20796;-76
2022/03/24 08:46:54;;;;;;;50.10;29.20;;;;;;;;;;4934036;29;20218;-76
2022/03/24 08:49:20;;;;;;;47.40;28.47;;;;;;;;;;4913396;29;20967;-77
2022/03/24 08:51:47;;;;;;;51.93;29.93;;;;;;;;;;4909236;29;20532;-78
2022/03/24 08:54:12;;;;;;;58.73;28.57;;;;;;;;;;4907798;29;20421;-79
2022/03/24 08:56:38;;;;;;;47.73;28.27;;;;;;;;;;4905360;29;20423;-74
2022/03/24 08:59:04;;;;;;;47.40;28.93;;;;;;;;;;4900479;29;20419;-78
2022/03/24 09:01:31;;;;;;;48.73;30.30;;;;;;;;;;4899802;29;20448;-77
2022/03/24 09:03:57;;;;;;;48.47;29.57;;;;;;;;;;4906355;29;20470;-74
2022/03/24 09:06:26;;;;;;;43.80;28.30;;;;;;;;;;4900175;29;20446;-78
2022/03/24 09:08:53;;;;;;;45.23;30.40;;;;;;;;;;4910678;29;20434;-78
2022/03/24 09:11:19;;;;;;;42.37;29.30;;;;;;;;;;4912895;29;20410;-78
2022/03/24 09:13:45;;;;;;;41.17;29.07;;;;;;;;;;4918809;29;20458;-74
2022/03/24 09:16:11;;;;;;;47.10;28.83;;;;;;;;;;4933488;29;20928;-76
2022/03/24 09:18:37;;;;;;;49.60;29.83;;;;;;;;;;4918477;29;20450;-76
2022/03/24 09:21:04;;;;;;;46.03;28.13;;;;;;;;;;4932938;29;20502;-77
2022/03/24 09:23:30;;;;;;;39.73;27.50;;;;;;;;;;4933255;29;20451;-78
2022/03/24 09:25:56;;;;;;;41.73;28.13;;;;;;;;;;4918558;29;20473;-78
2022/03/24 09:28:24;;;;;;;40.93;29.87;;;;;;;;;;4918703;29;20389;-75
2022/03/24 09:30:51;;;;;;;36.50;27.77;;;;;;;;;;4932677;29;20461;-79
2022/03/24 09:33:18;;;;;;;53.33;28.83;;;;;;;;;;4918738;29;20517;-75
2022/03/24 09:35:44;;;;;;;44.33;29.93;;;;;;;;;;4933109;29;20513;-77
2022/03/24 09:38:10;;;;;;;39.70;28.80;;;;;;;;;;4918735;29;20484;-78
2022/03/24 09:40:36;;;;;;;38.40;28.13;;;;;;;;;;4918191;29;20423;-76
2022/03/24 09:43:03;;;;;;;33.93;26.20;;;;;;;;;;4918533;29;20401;-77
2022/03/24 09:45:30;;;;;;;39.70;28.40;;;;;;;;;;4918601;29;20477;-75
2022/03/24 09:47:56;;;;;;;38.90;28.77;;;;;;;;;;4918336;29;20447;-76
2022/03/24 09:50:24;;;;;;;50.30;29.60;;;;;;;;;;4918121;29;20414;-76
2022/03/24 09:52:51;;;;;;;38.83;29.63;;;;;;;;;;4918563;29;20418;-75
2022/03/24 09:55:17;;;;;;;41.07;29.40;;;;;;;;;;4918320;29;20875;-76
2022/03/24 09:57:44;;;;;;;42.63;28.67;;;;;;;;;;4918351;29;20890;-76
2022/03/24 10:00:10;;;;;;;40.13;29.87;;;;;;;;;;4917719;29;20982;-75
2022/03/24 10:02:36;;;;;;;38.87;28.87;;;;;;;;;;4917116;29;20450;-76
2022/03/24 10:05:04;;;;;;;40.53;29.00;;;;;;;;;;4918110;29;20857;-78
2022/03/24 10:07:35;;;;;;;43.20;30.87;;;;;;;;;;4918083;29;20422;-79
2022/03/24 10:10:02;;;;;;;38.40;30.73;;;;;;;;;;4918004;29;20414;-76
2022/03/24 10:12:38;;;;;;;40.27;30.90;;;;;;;;;;4917385;29;20443;-77
2022/03/24 10:15:06;;;;;;;40.53;30.77;;;;;;;;;;4918003;29;20469;-77
2022/03/24 10:17:34;;;;;;;38.90;29.97;;;;;;;;;;4917891;29;20931;-75
2022/03/24 10:20:05;;;;;;;42.17;29.97;;;;;;;;;;4917866;29;20480;-76
2022/03/24 10:22:31;;;;;;;45.17;28.40;;;;;;;;;;4917118;29;20426;-77
2022/03/24 10:24:58;;;;;;;38.07;28.53;;;;;;;;;;4932208;29;20438;-75
2022/03/24 10:27:25;;;;;;;37.83;28.07;;;;;;;;;;4917708;29;20505;-77
2022/03/24 10:29:54;;;;;;;39.73;28.57;;;;;;;;;;4917673;29;20409;-76
2022/03/24 10:32:20;;;;;;;38.63;29.53;;;;;;;;;;4917221;29;20773;-76
2022/03/24 10:34:48;;;;;;;39.73;30.90;;;;;;;;;;4917604;29;20425;-77
2022/03/24 10:37:17;;;;;;;41.97;30.10;;;;;;;;;;4917789;29;20447;-75
2022/03/24 10:40:05;;;;;;;36.60;28.40;;;;;;;;;;4932188;29;20419;-76
2022/03/24 10:42:32;;;;;;;35.77;29.80;;;;;;;;;;4931781;29;20529;-75
2022/03/24 10:45:17;;;;;;;42.33;29.83;;;;;;;;;;4917486;29;20510;-76
2022/03/24 10:47:50;;;;;;;41.07;28.50;;;;;;;;;;4917527;29;20454;-75
2022/03/24 10:50:42;;;;;;;37.97;27.73;;;;;;;;;;4917067;29;20896;-74
2022/03/24 10:53:11;;;;;;;35.53;27.10;;;;;;;;;;4917422;29;20415;-77
2022/03/24 10:56:01;;;;;;;35.17;25.17;;;;;;;;;;4917414;29;20796;-76
2022/03/24 10:58:31;;;;;;;39.43;25.77;;;;;;;;;;4917286;29;20426;-78
2022/03/24 11:01:04;;;;;;;33.90;24.13;;;;;;;;;;4916714;29;20422;-78
2022/03/24 11:03:30;;;;;;;32.13;24.63;;;;;;;;;;4917278;29;20904;-76
2022/03/24 11:06:07;;;;;;;30.87;23.93;;;;;;;;;;4931747;29;20474;-76
2022/03/24 11:08:34;;;;;;;36.77;27.83;;;;;;;;;;4917129;29;20422;-79
2022/03/24 11:11:00;;;;;;;30.97;22.87;;;;;;;;;;4916663;29;20982;-75
2022/03/24 11:13:28;;;;;;;32.40;22.37;;;;;;;;;;4916743;29;20439;-75
2022/03/24 11:15:54;;;;;;;27.97;21.10;;;;;;;;;;4917052;29;20423;-75
2022/03/24 11:18:23;;;;;;;32.50;24.50;;;;;;;;;;4917038;29;20429;-77
2022/03/24 11:20:49;;;;;;;31.83;24.00;;;;;;;;;;4916450;29;20447;-77
2022/03/24 11:23:24;;;;;;;30.20;22.90;;;;;;;;;;4916690;29;20435;-76
2022/03/24 11:25:53;;;;;;;29.30;22.63;;;;;;;;;;4916897;29;20997;-76
2022/03/24 11:28:20;;;;;;;31.17;23.20;;;;;;;;;;4917000;29;20417;-77
2022/03/24 11:30:46;;;;;;;30.47;21.70;;;;;;;;;;4916474;29;20442;-77
2022/03/24 11:33:13;;;;;;;25.87;20.60;;;;;;;;;;4916859;29;20419;-77
2022/03/24 11:35:40;;;;;;;26.23;18.83;;;;;;;;;;4916748;29;20422;-77
2022/03/24 11:38:07;;;;;;;27.63;18.90;;;;;;;;;;4916791;29;20415;-76
2022/03/24 11:40:34;;;;;;;27.37;16.80;;;;;;;;;;4916657;29;20925;-74
2022/03/24 11:43:03;;;;;;;23.10;19.20;;;;;;;;;;4916734;29;20414;-77
2022/03/24 11:45:40;;;;;;;27.13;17.17;;;;;;;;;;4931431;29;20905;-76
2022/03/24 11:48:10;;;;;;;20.90;14.47;;;;;;;;;;4916752;29;20427;-75
2022/03/24 11:50:41;;;;;;;19.97;10.40;;;;;;;;;;4916328;29;20418;-77
2022/03/24 11:53:25;;;;;;;18.90;12.67;;;;;;;;;;4916590;29;20415;-76
2022/03/24 11:56:03;;;;;;;18.23;11.30;;;;;;;;;;4916788;29;20419;-75
2022/03/24 11:58:44;;;;;;;15.90;10.33;;;;;;;;;;4916619;29;20836;-76
2022/03/24 12:01:20;;;;;;;19.40;11.40;;;;;;;;;;4916061;29;20430;-76
2022/03/24 12:04:04;;;;;;;16.10;11.50;;;;;;;;;;4916711;29;20419;-74
2022/03/24 12:06:43;;;;;;;22.80;13.63;;;;;;;;;;4916471;29;20462;-75
2022/03/24 12:09:21;;;;;;;20.53;13.40;;;;;;;;;;4916494;29;20410;-79
2022/03/24 12:12:13;;;;;;;27.50;14.67;;;;;;;;;;4916197;29;20438;-79
2022/03/24 12:14:47;;;;;;;17.97;11.53;;;;;;;;;;4916159;29;20455;-74
2022/03/24 12:17:18;;;;;;;20.40;12.30;;;;;;;;;;4916302;29;20446;-77
2022/03/24 12:19:49;;;;;;;19.37;11.10;;;;;;;;;;4916428;29;20932;-74
2022/03/24 12:22:34;;;;;;;23.63;10.73;;;;;;;;;;4916027;29;20456;-77
2022/03/24 12:25:00;;;;;;;21.50;10.23;;;;;;;;;;4916885;29;20832;-73
2022/03/24 12:27:27;;;;;;;19.60;11.73;;;;;;;;;;4919670;29;20426;-76
2022/03/24 12:30:13;;;;;;;20.67;11.80;;;;;;;;;;4934213;29;20935;-75
2022/03/24 12:32:39;;;;;;;22.87;14.17;;;;;;;;;;4919710;29;20435;-77
2022/03/24 12:35:06;;;;;;;17.13;12.03;;;;;;;;;;4919639;29;20411;-77
2022/03/24 12:37:32;;;;;;;16.30;12.80;;;;;;;;;;4919267;29;20423;-75
2022/03/24 12:40:09;;;;;;;20.10;11.90;;;;;;;;;;4919698;29;20470;-78
2022/03/24 12:42:47;;;;;;;14.60;10.67;;;;;;;;;;4934458;29;20434;-76
2022/03/24 12:45:28;;;;;;;18.73;10.30;;;;;;;;;;4919539;29;20422;-76
2022/03/24 12:47:58;;;;;;;22.33;10.00;;;;;;;;;;4919625;29;20703;-77
2022/03/24 12:50:28;;;;;;;15.93;11.03;;;;;;;;;;4919069;29;20439;-77
2022/03/24 12:52:56;;;;;;;19.10;10.40;;;;;;;;;;4919606;29;20422;-74
2022/03/24 12:55:22;;;;;;;21.93;12.03;;;;;;;;;;4934157;29;20473;-76
2022/03/24 12:58:14;;;;;;;20.90;13.17;;;;;;;;;;4919235;29;20782;-78
2022/03/24 13:00:42;;;;;;;21.70;14.23;;;;;;;;;;4918554;29;20435;-74
2022/03/24 13:03:08;;;;;;;17.80;12.20;;;;;;;;;;4919106;29;20454;-75
2022/03/24 13:05:35;;;;;;;20.33;13.83;;;;;;;;;;4919244;29;20808;-75
2022/03/24 13:08:02;;;;;;;22.00;14.97;;;;;;;;;;4933750;29;20454;-77
2022/03/24 13:10:31;;;;;;;18.40;13.50;;;;;;;;;;4933303;29;20494;-77
2022/03/24 13:13:00;;;;;;;24.60;14.77;;;;;;;;;;4918961;29;20514;-75
2022/03/24 13:15:27;;;;;;;24.63;15.67;;;;;;;;;;4918961;29;20501;-76
2022/03/24 13:18:03;;;;;;;21.23;14.37;;;;;;;;;;4933259;29;20455;-76
2022/03/24 13:20:34;;;;;;;23.40;17.30;;;;;;;;;;4918394;29;20411;-76
2022/03/24 13:23:12;;;;;;;28.73;17.33;;;;;;;;;;4918712;29;20475;-76
2022/03/24 13:25:39;;;;;;;21.40;15.73;;;;;;;;;;4918715;29;20829;-75
2022/03/24 13:28:06;;;;;;;26.57;16.27;;;;;;;;;;4918528;29;20795;-75
2022/03/24 13:30:33;;;;;;;25.30;18.00;;;;;;;;;;4918292;29;20419;-77
2022/03/24 13:33:04;;;;;;;23.13;15.83;;;;;;;;;;4933372;29;20813;-77
2022/03/24 13:35:37;;;;;;;23.37;16.63;;;;;;;;;;4918604;29;20447;-76
2022/03/24 13:38:07;;;;;;;23.03;16.27;;;;;;;;;;4918690;29;20394;-74
2022/03/24 13:40:34;;;;;;;23.30;18.47;;;;;;;;;;4932695;29;20426;-74
2022/03/24 13:43:01;;;;;;;25.23;17.93;;;;;;;;;;4918608;29;20415;-76
2022/03/24 13:45:27;;;;;;;25.63;16.70;;;;;;;;;;4932852;29;20478;-78
2022/03/24 13:47:56;;;;;;;23.70;16.70;;;;;;;;;;4918296;29;20832;-76
2022/03/24 13:50:26;;;;;;;28.97;17.57;;;;;;;;;;4917883;29;20775;-75
2022/03/24 13:52:52;;;;;;;22.80;17.33;;;;;;;;;;4918357;29;20501;-77
2022/03/24 13:55:23;;;;;;;28.53;19.37;;;;;;;;;;4918450;29;20429;-76
2022/03/24 13:57:50;;;;;;;25.50;18.20;;;;;;;;;;4918321;29;20494;-77
2022/03/24 14:00:24;;;;;;;25.93;19.63;;;;;;;;;;4917793;29;20411;-75
2022/03/24 14:02:54;;;;;;;25.77;19.30;;;;;;;;;;4918117;29;20418;-78
2022/03/24 14:05:21;;;;;;;27.17;20.93;;;;;;;;;;4933102;29;20545;-75
2022/03/24 14:07:59;;;;;;;28.00;19.40;;;;;;;;;;4918041;29;20418;-78
2022/03/24 14:10:43;;;;;;;31.87;21.50;;;;;;;;;;4917605;29;20418;-78
2022/03/24 14:13:35;;;;;;;31.17;20.50;;;;;;;;;;4917855;29;20489;-78
2022/03/24 14:16:20;;;;;;;31.07;21.80;;;;;;;;;;4917422;29;20426;-78
2022/03/24 14:19:05;;;;;;;31.57;22.53;;;;;;;;;;4917777;29;20410;-76
2022/03/24 14:21:38;;;;;;;31.20;21.67;;;;;;;;;;4917330;29;20435;-76
2022/03/24 14:24:05;;;;;;;29.50;19.57;;;;;;;;;;4917424;29;20443;-78